Time;durP1;ratioP1;P1;durP2;ratioP2;P2;SDS_P1;SDS_P2;PMS_P1;PMS_P2;Temp;Humidity;BMP_temperature;BMP_pressure;BME280_temperature;BME280_humidity;BME280_pressure;Samples;Min_cycle;Max_cycle;Signal;HPM_P1;HPM_P2
2023/01/17 04:02:16;;;;;;;;;;;1.90;99.90;;;;;;5287186;23;20095;-73
2023/01/17 04:04:42;;;;;;;;;;;1.90;99.90;;;;;;4939061;28;19927;-74
2023/01/17 04:07:09;;;;;;;;;;;1.80;99.90;;;;;;4934009;29;20013;-73
2023/01/17 04:09:36;;;;;;;;;;;1.70;99.90;;;;;;4935912;29;19927;-73
2023/01/17 04:12:03;;;;;;;;;;;1.70;99.90;;;;;;4922025;29;20306;-72
2023/01/17 04:14:29;;;;;;;;;;;1.70;99.90;;;;;;4930364;29;19966;-72
2023/01/17 04:16:56;;;;;;;;;;;1.70;99.90;;;;;;4928273;29;19984;-73
2023/01/17 04:19:24;;;;;;;;;;;1.70;99.90;;;;;;4930112;29;19962;-73
2023/01/17 04:21:50;;;;;;;;;;;1.70;99.90;;;;;;4912148;29;19927;-73
2023/01/17 04:24:17;;;;;;;;;;;1.60;99.90;;;;;;4932658;29;20030;-73
2023/01/17 04:26:44;;;;;;;;;;;1.60;99.90;;;;;;4932641;29;19966;-72
2023/01/17 04:29:10;;;;;;;;;;;1.60;99.90;;;;;;4932587;29;19977;-73
2023/01/17 04:31:37;;;;;;;;;;;1.60;99.90;;;;;;4928220;29;20445;-73
2023/01/17 04:34:04;;;;;;;;;;;1.50;99.90;;;;;;4932559;29;19934;-72
2023/01/17 04:36:32;;;;;;;;;;;1.60;99.90;;;;;;4930529;29;19950;-73
2023/01/17 04:38:59;;;;;;;;;;;1.50;99.90;;;;;;4924928;29;19927;-73
2023/01/17 04:41:25;;;;;;;;;;;1.50;99.90;;;;;;4931885;29;19990;-72
2023/01/17 04:43:52;;;;;;;;;;;1.50;99.90;;;;;;4922102;29;19975;-73
2023/01/17 04:46:19;;;;;;;;;;;1.50;99.90;;;;;;4930723;29;19931;-72
2023/01/17 04:48:46;;;;;;;;;;;1.60;99.90;;;;;;4919863;29;19958;-73
2023/01/17 04:51:12;;;;;;;;;;;1.60;99.90;;;;;;4931116;29;19927;-72
2023/01/17 04:53:41;;;;;;;;;;;1.60;99.90;;;;;;4922154;29;19927;-72
2023/01/17 04:56:08;;;;;;;;;;;1.60;99.90;;;;;;4933181;29;19938;-73
2023/01/17 04:58:34;;;;;;;;;;;1.50;99.90;;;;;;4930024;29;20048;-73
2023/01/17 05:01:02;;;;;;;;;;;1.50;99.90;;;;;;4921663;29;20454;-73
2023/01/17 05:03:29;;;;;;;;;;;1.60;99.90;;;;;;4935573;29;19927;-72
2023/01/17 05:05:56;;;;;;;;;;;1.60;99.90;;;;;;4918453;29;19983;-73
2023/01/17 05:08:23;;;;;;;;;;;1.60;99.90;;;;;;4925255;29;19986;-71
2023/01/17 05:10:51;;;;;;;;;;;1.70;99.90;;;;;;4924371;29;19927;-72
2023/01/17 05:13:18;;;;;;;;;;;1.80;99.90;;;;;;4928370;29;19934;-73
2023/01/17 05:15:45;;;;;;;;;;;1.80;99.90;;;;;;4924294;29;19963;-73
2023/01/17 05:18:12;;;;;;;;;;;1.80;99.90;;;;;;4919037;29;19979;-72
2023/01/17 05:20:39;;;;;;;;;;;1.80;99.90;;;;;;4929437;29;20369;-73
2023/01/17 05:23:05;;;;;;;;;;;1.90;99.90;;;;;;4919739;29;20419;-72
2023/01/17 05:25:33;;;;;;;;;;;1.90;99.90;;;;;;4914966;29;19983;-74
2023/01/17 05:28:01;;;;;;;;;;;1.90;99.90;;;;;;4926026;29;19966;-73
2023/01/17 05:30:28;;;;;;;;;;;1.90;99.90;;;;;;4932133;29;19938;-72
2023/01/17 05:32:56;;;;;;;;;;;1.90;99.90;;;;;;4923491;29;19927;-72
2023/01/17 05:35:24;;;;;;;;;;;1.90;99.90;;;;;;4927350;29;19927;-73
2023/01/17 05:37:51;;;;;;;;;;;1.90;99.90;;;;;;4932758;29;20354;-73
2023/01/17 05:40:18;;;;;;;;;;;1.90;99.90;;;;;;4926704;29;19978;-71
2023/01/17 05:42:46;;;;;;;;;;;1.80;99.90;;;;;;4919469;29;20287;-72
2023/01/17 05:45:15;;;;;;;;;;;1.80;99.90;;;;;;4920159;29;19928;-71
2023/01/17 05:47:42;;;;;;;;;;;1.80;99.90;;;;;;4928278;29;19930;-71
2023/01/17 05:50:10;;;;;;;;;;;1.80;99.90;;;;;;4923582;29;19999;-72
2023/01/17 05:52:37;;;;;;;;;;;1.80;99.90;;;;;;4919056;29;20354;-73
2023/01/17 05:55:05;;;;;;;;;;;1.80;99.90;;;;;;4911067;29;19931;-72
2023/01/17 05:57:32;;;;;;;;;;;1.90;99.90;;;;;;4917063;29;19927;-72
2023/01/17 05:59:59;;;;;;;;;;;1.80;99.90;;;;;;4922160;29;19931;-72
2023/01/17 06:02:27;;;;;;;;;;;1.80;99.90;;;;;;4911072;29;19927;-72
2023/01/17 06:04:53;;;;;;;;;;;1.80;99.90;;;;;;4915510;29;19934;-74
2023/01/17 06:07:20;;;;;;;;;;;1.80;99.90;;;;;;4906695;29;19927;-73
2023/01/17 06:09:47;;;;;;;;;;;1.80;99.90;;;;;;4925462;29;19938;-73
2023/01/17 06:12:14;;;;;;;;;;;1.80;99.90;;;;;;4914032;29;19927;-73
2023/01/17 06:14:40;;;;;;;;;;;1.80;99.90;;;;;;4920677;29;19934;-73
2023/01/17 06:17:07;;;;;;;;;;;1.80;99.90;;;;;;4922139;29;19982;-71
2023/01/17 06:19:35;;;;;;;;;;;1.80;99.90;;;;;;4916952;29;20445;-73
2023/01/17 06:22:03;;;;;;;;;;;1.80;99.90;;;;;;4925079;29;19927;-73
2023/01/17 06:24:30;;;;;;;;;;;1.90;99.90;;;;;;4921438;29;19930;-71
2023/01/17 06:26:57;;;;;;;;;;;1.80;99.90;;;;;;4917980;29;19990;-73
2023/01/17 06:29:23;;;;;;;;;;;1.80;99.90;;;;;;4918665;29;19931;-73
2023/01/17 06:31:50;;;;;;;;;;;1.80;99.90;;;;;;4928493;29;19927;-72
2023/01/17 06:34:17;;;;;;;;;;;1.70;99.90;;;;;;4922946;29;20001;-73
2023/01/17 06:36:45;;;;;;;;;;;1.70;99.90;;;;;;4921332;29;19953;-74
2023/01/17 06:39:12;;;;;;;;;;;1.70;99.90;;;;;;4918395;29;19930;-74
2023/01/17 06:41:39;;;;;;;;;;;1.60;99.90;;;;;;4921261;29;20413;-71
2023/01/17 06:44:06;;;;;;;;;;;1.60;99.90;;;;;;4914147;29;19955;-73
2023/01/17 06:46:33;;;;;;;;;;;1.60;99.90;;;;;;4908900;29;20035;-74
2023/01/17 06:49:01;;;;;;;;;;;1.50;99.90;;;;;;4909797;29;20502;-72
2023/01/17 06:51:28;;;;;;;;;;;1.50;99.90;;;;;;4918668;29;19935;-74
2023/01/17 06:53:56;;;;;;;;;;;1.40;99.90;;;;;;4915691;29;19927;-73
2023/01/17 06:56:23;;;;;;;;;;;1.40;99.90;;;;;;4915892;29;19927;-73
2023/01/17 06:58:50;;;;;;;;;;;1.30;99.90;;;;;;4921112;29;19933;-72
2023/01/17 07:01:18;;;;;;;;;;;1.20;99.90;;;;;;4915629;29;19930;-73
2023/01/17 07:03:44;;;;;;;;;;;1.20;99.90;;;;;;4919362;29;19953;-72
2023/01/17 07:06:11;;;;;;;;;;;1.10;99.90;;;;;;4919010;29;19927;-74
2023/01/17 07:08:38;;;;;;;;;;;1.00;99.90;;;;;;4917267;29;19935;-73
2023/01/17 07:11:07;;;;;;;;;;;0.90;99.90;;;;;;4918357;29;19937;-73
2023/01/17 07:13:35;;;;;;;;;;;0.90;99.90;;;;;;4913142;29;19928;-73
2023/01/17 07:16:02;;;;;;;;;;;0.90;99.90;;;;;;4920862;29;20291;-73
2023/01/17 07:18:29;;;;;;;;;;;0.80;99.90;;;;;;4916062;29;19927;-71
2023/01/17 07:20:56;;;;;;;;;;;0.70;99.90;;;;;;4925533;29;20420;-73
2023/01/17 07:23:23;;;;;;;;;;;0.70;99.90;;;;;;4917375;29;19927;-74
2023/01/17 07:25:51;;;;;;;;;;;0.60;99.90;;;;;;4912015;29;19931;-74
2023/01/17 07:28:19;;;;;;;;;;;0.60;99.90;;;;;;4917212;29;19927;-73
2023/01/17 07:30:46;;;;;;;;;;;0.50;99.90;;;;;;4927766;29;19927;-73
2023/01/17 07:33:13;;;;;;;;;;;0.50;99.90;;;;;;4924828;29;19927;-74
2023/01/17 07:35:40;;;;;;;;;;;0.50;99.90;;;;;;4922806;29;19935;-74
2023/01/17 07:38:10;;;;;;;;;;;0.50;99.90;;;;;;4925378;29;19927;-74
2023/01/17 07:40:36;;;;;;;;;;;0.50;99.90;;;;;;4923395;29;20038;-73
2023/01/17 07:43:11;;;;;;;;;;;0.50;99.90;;;;;;4928985;29;20454;-74
2023/01/17 07:45:42;;;;;;;;;;;0.60;99.90;;;;;;4928612;29;19927;-73
2023/01/17 07:48:09;;;;;;;;;;;0.60;99.90;;;;;;4920108;29;19955;-74
2023/01/17 07:50:36;;;;;;;;;;;0.60;99.90;;;;;;4927437;29;19950;-74
2023/01/17 07:53:03;;;;;;;;;;;0.70;99.90;;;;;;4924209;29;19981;-71
2023/01/17 07:55:30;;;;;;;;;;;0.70;99.90;;;;;;4916008;29;19931;-73
2023/01/17 07:57:56;;;;;;;;;;;0.70;99.90;;;;;;4923956;29;19931;-72
2023/01/17 08:00:25;;;;;;;;;;;0.60;99.90;;;;;;4916261;29;19927;-72
2023/01/17 08:02:57;;;;;;;;;;;0.60;99.90;;;;;;4924545;29;20489;-71
2023/01/17 08:05:24;;;;;;;;;;;0.60;99.90;;;;;;4919498;29;19927;-74
2023/01/17 08:07:51;;;;;;;;;;;0.60;99.90;;;;;;4923146;29;19991;-73
2023/01/17 08:10:17;;;;;;;;;;;0.70;99.90;;;;;;4921139;29;19977;-73
2023/01/17 08:12:44;;;;;;;;;;;0.70;99.90;;;;;;4923486;29;19931;-72
2023/01/17 08:15:11;;;;;;;;;;;0.80;99.90;;;;;;4925332;29;19963;-73
2023/01/17 08:17:38;;;;;;;;;;;0.80;99.90;;;;;;4925130;29;19933;-73
2023/01/17 08:20:07;;;;;;;;;;;0.80;99.90;;;;;;4919013;29;19955;-71
2023/01/17 08:22:33;;;;;;;;;;;0.90;99.90;;;;;;4918912;29;19927;-74
2023/01/17 08:25:00;;;;;;;;;;;0.90;99.90;;;;;;4922924;29;19935;-73
2023/01/17 08:27:28;;;;;;;;;;;1.10;99.90;;;;;;4917878;29;19935;-74
2023/01/17 08:29:55;;;;;;;;;;;1.20;99.90;;;;;;4921924;29;19927;-73
2023/01/17 08:32:22;;;;;;;;;;;1.30;99.90;;;;;;4912281;29;19927;-73
2023/01/17 08:34:48;;;;;;;;;;;1.30;99.90;;;;;;4917833;29;19966;-74
2023/01/17 08:37:17;;;;;;;;;;;1.40;99.90;;;;;;4916096;29;19959;-73
2023/01/17 08:39:43;;;;;;;;;;;1.50;99.90;;;;;;4912499;29;19927;-72
2023/01/17 08:42:10;;;;;;;;;;;1.50;99.90;;;;;;4917254;29;19938;-73
2023/01/17 08:44:37;;;;;;;;;;;1.50;99.90;;;;;;4920509;29;19938;-71
2023/01/17 08:47:04;;;;;;;;;;;1.50;99.90;;;;;;4923969;29;20473;-73
2023/01/17 08:49:31;;;;;;;;;;;1.60;99.90;;;;;;4923718;29;19927;-74
2023/01/17 08:51:58;;;;;;;;;;;1.50;99.90;;;;;;4919989;29;19969;-74
2023/01/17 08:54:27;;;;;;;;;;;1.60;99.90;;;;;;4913233;29;19931;-73
2023/01/17 08:56:54;;;;;;;;;;;1.60;99.90;;;;;;4924228;29;20414;-73
2023/01/17 08:59:21;;;;;;;;;;;1.70;99.90;;;;;;4915475;29;20399;-73
2023/01/17 09:01:48;;;;;;;;;;;1.70;99.90;;;;;;4923907;29;20446;-73
2023/01/17 09:04:15;;;;;;;;;;;1.80;99.90;;;;;;4920073;29;19935;-74
2023/01/17 09:06:44;;;;;;;;;;;1.80;99.90;;;;;;4918400;29;19927;-74
2023/01/17 09:09:11;;;;;;;;;;;1.80;99.90;;;;;;4923017;29;19931;-74
2023/01/17 09:11:39;;;;;;;;;;;1.90;99.90;;;;;;4918899;29;20046;-74
2023/01/17 09:14:06;;;;;;;;;;;1.90;99.90;;;;;;4916127;29;19931;-73
2023/01/17 09:16:32;;;;;;;;;;;1.90;99.90;;;;;;4923464;29;19978;-73
2023/01/17 09:18:59;;;;;;;;;;;2.00;99.90;;;;;;4918824;29;19934;-75
2023/01/17 09:21:26;;;;;;;;;;;2.00;99.90;;;;;;4921250;29;20319;-74
2023/01/17 09:23:54;;;;;;;;;;;2.00;99.90;;;;;;4906842;29;19957;-74
2023/01/17 09:26:22;;;;;;;;;;;2.10;99.90;;;;;;4910320;29;19931;-73
2023/01/17 09:28:50;;;;;;;;;;;2.10;99.90;;;;;;4910058;29;19959;-74
2023/01/17 09:31:19;;;;;;;;;;;2.20;99.90;;;;;;4926531;29;19927;-73
2023/01/17 09:33:46;;;;;;;;;;;2.30;99.90;;;;;;4926882;29;19927;-72
2023/01/17 09:36:12;;;;;;;;;;;2.30;99.90;;;;;;4925069;29;19930;-73
2023/01/17 09:38:40;;;;;;;;;;;2.40;99.90;;;;;;4925838;29;20458;-73
2023/01/17 09:41:18;;;;;;;;;;;2.50;99.90;;;;;;4921014;29;20026;-73
2023/01/17 09:43:46;;;;;;;;;;;2.50;99.90;;;;;;4926234;29;19930;-74
2023/01/17 09:46:21;;;;;;;;;;;2.60;99.90;;;;;;4917839;29;20453;-73
2023/01/17 09:48:49;;;;;;;;;;;2.60;99.90;;;;;;4914624;29;19927;-74
2023/01/17 09:51:19;;;;;;;;;;;2.70;99.90;;;;;;4922375;29;19927;-74
2023/01/17 09:53:46;;;;;;;;;;;2.70;99.90;;;;;;4921004;29;19955;-75
2023/01/17 09:56:14;;;;;;;;;;;2.90;99.90;;;;;;4925062;29;20013;-73
2023/01/17 09:58:43;;;;;;;;;;;2.90;99.90;;;;;;4917232;29;20429;-73
2023/01/17 10:01:14;;;;;;;;;;;2.90;99.90;;;;;;4920585;29;19973;-73
2023/01/17 10:03:45;;;;;;;;;;;3.00;99.90;;;;;;4921062;29;19927;-73
2023/01/17 10:06:31;;;;;;;;;;;3.20;99.90;;;;;;4917636;29;19974;-73
2023/01/17 10:09:06;;;;;;;;;;;3.30;99.90;;;;;;4923062;29;20406;-74
2023/01/17 10:11:36;;;;;;;;;;;3.40;99.90;;;;;;4910543;29;20422;-73
2023/01/17 10:14:10;;;;;;;;;;;3.50;99.90;;;;;;4907163;29;19965;-73
2023/01/17 10:16:43;;;;;;;;;;;3.70;99.90;;;;;;4909429;29;19927;-74
2023/01/17 10:19:18;;;;;;;;;;;3.70;99.90;;;;;;4911261;29;19930;-73
2023/01/17 10:21:52;;;;;;;;;;;3.60;99.90;;;;;;4909881;29;19927;-75
2023/01/17 10:24:35;;;;;;;;;;;3.70;99.90;;;;;;4916077;29;19936;-74
2023/01/17 10:27:03;;;;;;;;;;;3.90;99.90;;;;;;4921832;29;19935;-74
2023/01/17 10:29:32;;;;;;;;;;;4.20;99.90;;;;;;4920365;29;19928;-74
2023/01/17 10:32:00;;;;;;;;;;;4.50;99.90;;;;;;4922105;29;19978;-74
2023/01/17 10:34:31;;;;;;;;;;;4.80;99.90;;;;;;4921423;29;20293;-74
2023/01/17 10:37:01;;;;;;;;;;;5.10;99.90;;;;;;4925231;29;19927;-74
2023/01/17 10:39:29;;;;;;;;;;;6.10;99.90;;;;;;4924802;29;20402;-75
2023/01/17 10:41:57;;;;;;;;;;;10.60;99.90;;;;;;4924563;29;19927;-74
2023/01/17 10:44:28;;;;;;;;;;;13.20;99.90;;;;;;4921327;29;19974;-75
2023/01/17 10:46:56;;;;;;;;;;;15.80;99.90;;;;;;4918354;29;19934;-72
2023/01/17 10:49:24;;;;;;;;;;;17.50;99.90;;;;;;4919121;29;19931;-74
2023/01/17 10:51:58;;;;;;;;;;;;;;;;;;4918940;29;19931;-75
2023/01/17 10:54:37;;;;;;;;;;;18.60;99.90;;;;;;4919530;29;19927;-72
2023/01/17 10:57:03;;;;;;;;;;;17.10;99.90;;;;;;4917339;29;19972;-72
2023/01/17 10:59:32;;;;;;;;;;;17.70;99.90;;;;;;4924829;29;19931;-73
2023/01/17 11:02:00;;;;;;;;;;;17.80;99.90;;;;;;4920414;29;19928;-72
2023/01/17 11:04:31;;;;;;;;;;;18.70;99.90;;;;;;4930429;29;19927;-72
2023/01/17 11:07:10;;;;;;;;;;;19.20;99.90;;;;;;4914990;29;19927;-76
2023/01/17 11:09:39;;;;;;;;;;;19.50;99.90;;;;;;4915507;29;19927;-74
2023/01/17 11:12:13;;;;;;;;;;;19.60;99.90;;;;;;4908939;29;20451;-72
2023/01/17 11:14:39;;;;;;;;;;;20.40;99.90;;;;;;4919915;29;19927;-73
2023/01/17 11:17:08;;;;;;;;;;;21.50;99.90;;;;;;4922537;29;20350;-73
2023/01/17 11:19:37;;;;;;;;;;;19.60;99.90;;;;;;4927419;29;19927;-73
2023/01/17 11:22:04;;;;;;;;;;;18.10;99.90;;;;;;4922349;29;19962;-73
2023/01/17 11:24:33;;;;;;;;;;;19.90;99.90;;;;;;4924910;29;19952;-73
2023/01/17 11:27:02;;;;;;;;;;;21.30;99.90;;;;;;4927613;29;20410;-73
2023/01/17 11:29:32;;;;;;;;;;;22.70;99.90;;;;;;4919776;29;19935;-73
2023/01/17 11:32:16;;;;;;;;;;;22.90;99.90;;;;;;4931268;29;19927;-74
2023/01/17 11:34:42;;;;;;;;;;;22.50;99.90;;;;;;4926271;29;19931;-74
2023/01/17 11:37:16;;;;;;;;;;;22.20;99.90;;;;;;4925666;29;19928;-74
2023/01/17 11:39:43;;;;;;;;;;;22.30;99.90;;;;;;4923223;29;19931;-73
2023/01/17 11:42:31;;;;;;;;;;;23.40;99.90;;;;;;4923354;29;19928;-74
2023/01/17 11:45:16;;;;;;;;;;;23.80;99.90;;;;;;4921728;29;19931;-73
2023/01/17 11:47:43;;;;;;;;;;;23.70;99.90;;;;;;4913325;29;19935;-74
2023/01/17 11:50:22;;;;;;;;;;;23.90;99.90;;;;;;4927880;29;19928;-74
2023/01/17 11:52:50;;;;;;;;;;;23.50;99.90;;;;;;4927518;29;19975;-74
2023/01/17 11:55:21;;;;;;;;;;;23.10;99.90;;;;;;4925184;29;19987;-74
2023/01/17 11:57:50;;;;;;;;;;;22.30;99.90;;;;;;4926038;29;19927;-72
2023/01/17 12:00:20;;;;;;;;;;;22.60;99.90;;;;;;4925054;29;19934;-74
2023/01/17 12:03:17;;;;;;;;;;;19.90;99.90;;;;;;4926839;29;19950;-73
2023/01/17 12:05:55;;;;;;;;;;;18.10;99.90;;;;;;4870465;29;19936;-73
2023/01/17 12:08:29;;;;;;;;;;;18.80;99.90;;;;;;4915052;29;19927;-72
2023/01/17 12:10:59;;;;;;;;;;;19.50;99.90;;;;;;4912993;29;19927;-74
2023/01/17 12:16:27;;;;;;;;;;;19.90;99.90;;;;;;4916342;29;19926;-72
2023/01/17 12:18:56;;;;;;;;;;;20.60;99.90;;;;;;4927241;29;20013;-73
2023/01/17 12:21:26;;;;;;;;;;;21.60;99.90;;;;;;4919237;29;19934;-74
2023/01/17 12:24:16;;;;;;;;;;;23.50;99.90;;;;;;4914658;29;19931;-74
2023/01/17 12:26:48;;;;;;;;;;;24.00;99.90;;;;;;4924740;29;20323;-73
2023/01/17 12:29:27;;;;;;;;;;;23.40;99.90;;;;;;4914981;29;19978;-73
2023/01/17 12:31:57;;;;;;;;;;;23.50;99.90;;;;;;4926471;29;19928;-73
2023/01/17 12:34:27;;;;;;;;;;;24.70;99.90;;;;;;4920140;29;19928;-73
2023/01/17 12:36:57;;;;;;;;;;;25.30;99.90;;;;;;4920438;29;19928;-73
2023/01/17 12:39:26;;;;;;;;;;;24.90;99.90;;;;;;4931642;29;19979;-73
2023/01/17 12:41:59;;;;;;;;;;;22.40;99.90;;;;;;4926547;29;19934;-73
2023/01/17 12:44:35;;;;;;;;;;;21.60;99.90;;;;;;4920306;29;19936;-74
2023/01/17 12:47:04;;;;;;;;;;;21.80;99.90;;;;;;4922099;29;19931;-73
2023/01/17 12:49:36;;;;;;;;;;;19.10;99.90;;;;;;4926090;29;19927;-73
2023/01/17 12:52:03;;;;;;;;;;;19.10;99.90;;;;;;4922482;29;19970;-74
2023/01/17 12:54:34;;;;;;;;;;;20.20;99.90;;;;;;4927982;29;20017;-73
2023/01/17 12:57:03;;;;;;;;;;;21.00;99.90;;;;;;4925809;29;19933;-73
2023/01/17 12:59:35;;;;;;;;;;;18.90;99.90;;;;;;4925700;29;20485;-73
2023/01/17 13:02:07;;;;;;;;;;;16.70;99.90;;;;;;4922664;29;19934;-73
2023/01/17 13:04:36;;;;;;;;;;;15.80;99.90;;;;;;4924568;29;19931;-72
2023/01/17 13:07:06;;;;;;;;;;;15.90;99.90;;;;;;4914879;29;20369;-73
2023/01/17 13:09:34;;;;;;;;;;;16.90;99.90;;;;;;4920519;29;20045;-74
2023/01/17 13:12:02;;;;;;;;;;;18.70;99.90;;;;;;4920116;29;20403;-74
2023/01/17 13:14:29;;;;;;;;;;;20.50;99.90;;;;;;4928144;29;19927;-74
2023/01/17 13:16:59;;;;;;;;;;;20.50;99.90;;;;;;4923316;29;19974;-73
2023/01/17 13:19:32;;;;;;;;;;;19.20;99.90;;;;;;4919291;29;19931;-74
2023/01/17 13:22:00;;;;;;;;;;;19.20;99.90;;;;;;4920729;29;19932;-72
2023/01/17 13:24:34;;;;;;;;;;;19.20;99.90;;;;;;4922955;29;19927;-73
2023/01/17 13:27:22;;;;;;;;;;;18.90;99.90;;;;;;4924397;29;20406;-73
2023/01/17 13:29:55;;;;;;;;;;;19.10;99.90;;;;;;4916315;29;19938;-73
2023/01/17 13:32:31;;;;;;;;;;;18.30;99.90;;;;;;4923074;29;20346;-74
2023/01/17 13:35:05;;;;;;;;;;;18.10;99.90;;;;;;4923539;29;19942;-76
2023/01/17 13:37:47;;;;;;;;;;;17.80;99.90;;;;;;4926132;29;19934;-73
2023/01/17 13:40:28;;;;;;;;;;;19.10;99.90;;;;;;4922837;29;19931;-73
2023/01/17 13:42:56;;;;;;;;;;;18.90;99.90;;;;;;4919255;29;19974;-72
2023/01/17 13:45:23;;;;;;;;;;;17.30;99.90;;;;;;4925448;29;20359;-74
2023/01/17 13:47:52;;;;;;;;;;;15.40;99.90;;;;;;4927926;29;19987;-73
2023/01/17 13:50:38;;;;;;;;;;;15.40;99.90;;;;;;4928779;29;20382;-74
2023/01/17 13:53:20;;;;;;;;;;;15.30;99.90;;;;;;4922539;29;19927;-73
2023/01/17 13:55:52;;;;;;;;;;;16.00;99.90;;;;;;4924148;29;19931;-74
2023/01/17 13:58:28;;;;;;;;;;;15.80;99.90;;;;;;4921540;29;19934;-75
2023/01/17 14:00:55;;;;;;;;;;;15.80;99.90;;;;;;4923740;29;20034;-73
2023/01/17 14:03:40;;;;;;;;;;;15.80;99.90;;;;;;4928156;29;19926;-74
2023/01/17 14:06:22;;;;;;;;;;;15.40;99.90;;;;;;4924719;29;19931;-74
2023/01/17 14:08:50;;;;;;;;;;;14.60;99.90;;;;;;4924251;29;20367;-73
2023/01/17 14:11:17;;;;;;;;;;;14.80;99.90;;;;;;4924119;29;19927;-72
2023/01/17 14:13:44;;;;;;;;;;;15.20;99.90;;;;;;4925446;29;20299;-73
2023/01/17 14:16:24;;;;;;;;;;;14.60;99.90;;;;;;4921753;29;19927;-74
2023/01/17 14:18:52;;;;;;;;;;;14.30;99.90;;;;;;4924604;29;19938;-73
2023/01/17 14:21:21;;;;;;;;;;;14.10;99.90;;;;;;4927045;29;19931;-74
2023/01/17 14:24:03;;;;;;;;;;;14.30;99.90;;;;;;4925878;29;19935;-73
2023/01/17 14:26:42;;;;;;;;;;;14.10;99.90;;;;;;4926886;29;20022;-73
2023/01/17 14:29:28;;;;;;;;;;;14.00;99.90;;;;;;4916044;29;19939;-74
2023/01/17 14:31:59;;;;;;;;;;;13.80;99.90;;;;;;4919722;29;19934;-73
2023/01/17 14:34:26;;;;;;;;;;;13.40;99.90;;;;;;4923057;29;19927;-73
2023/01/17 14:37:03;;;;;;;;;;;13.60;99.90;;;;;;4920899;29;19927;-73
2023/01/17 14:39:31;;;;;;;;;;;12.80;99.90;;;;;;4919058;29;19927;-73
2023/01/17 14:41:58;;;;;;;;;;;12.50;99.90;;;;;;4918980;29;19927;-74
2023/01/17 14:44:24;;;;;;;;;;;12.30;99.90;;;;;;4925054;29;19931;-73
2023/01/17 14:46:51;;;;;;;;;;;12.20;99.90;;;;;;4927869;29;19982;-74
2023/01/17 14:49:22;;;;;;;;;;;12.30;99.90;;;;;;4925025;29;19933;-74
2023/01/17 14:51:58;;;;;;;;;;;12.40;99.90;;;;;;4919855;29;19958;-73
2023/01/17 14:54:25;;;;;;;;;;;12.50;99.90;;;;;;4925493;29;19926;-73
2023/01/17 14:57:10;;;;;;;;;;;12.80;99.90;;;;;;4919917;29;19926;-73
2023/01/17 14:59:37;;;;;;;;;;;12.50;99.90;;;;;;4921245;29;19931;-74
2023/01/17 15:02:04;;;;;;;;;;;12.40;99.90;;;;;;4911543;29;19930;-73
2023/01/17 15:04:34;;;;;;;;;;;12.10;99.90;;;;;;4917604;29;19934;-72
2023/01/17 15:07:01;;;;;;;;;;;12.10;99.90;;;;;;4913073;29;20291;-72
2023/01/17 15:09:29;;;;;;;;;;;11.80;99.90;;;;;;4921129;29;19931;-75
2023/01/17 15:11:58;;;;;;;;;;;11.20;99.90;;;;;;4914266;29;19990;-76
2023/01/17 15:14:27;;;;;;;;;;;10.90;99.90;;;;;;4914933;29;19942;-75
2023/01/17 15:16:54;;;;;;;;;;;10.20;99.90;;;;;;4917325;29;19955;-75
2023/01/17 15:19:21;;;;;;;;;;;9.80;99.90;;;;;;4916587;29;19931;-76
2023/01/17 15:21:49;;;;;;;;;;;9.40;99.90;;;;;;4920346;29;19927;-74
2023/01/17 15:24:19;;;;;;;;;;;9.40;99.90;;;;;;4913550;29;19935;-75
2023/01/17 15:26:46;;;;;;;;;;;9.20;99.90;;;;;;4915958;29;19927;-75
2023/01/17 15:29:17;;;;;;;;;;;8.80;99.90;;;;;;4923082;29;20354;-75
2023/01/17 15:31:45;;;;;;;;;;;8.20;99.90;;;;;;4924996;29;20400;-73
2023/01/17 15:34:20;;;;;;;;;;;7.90;99.90;;;;;;4925731;29;19931;-75
2023/01/17 15:36:48;;;;;;;;;;;7.30;99.90;;;;;;4921762;29;20580;-75
2023/01/17 15:39:18;;;;;;;;;;;6.90;99.90;;;;;;4925701;29;19935;-74
2023/01/17 15:41:46;;;;;;;;;;;6.60;99.90;;;;;;4922513;29;19986;-74
2023/01/17 15:44:25;;;;;;;;;;;6.30;99.90;;;;;;4925591;29;20405;-74
2023/01/17 15:46:52;;;;;;;;;;;6.00;99.90;;;;;;4917208;29;19930;-76
2023/01/17 15:49:20;;;;;;;;;;;5.80;99.90;;;;;;4921065;29;19934;-76
2023/01/17 15:51:48;;;;;;;;;;;5.50;99.90;;;;;;4924587;29;20387;-72
2023/01/17 15:54:26;;;;;;;;;;;5.30;99.90;;;;;;4924381;29;20002;-74
2023/01/17 15:57:06;;;;;;;;;;;5.10;99.90;;;;;;4912416;29;19928;-73
2023/01/17 15:59:42;;;;;;;;;;;4.80;99.90;;;;;;4912565;29;19934;-74
2023/01/17 16:02:22;;;;;;;;;;;4.60;99.90;;;;;;4948823;23;19927;-71
2023/01/17 16:04:49;;;;;;;;;;;4.50;99.90;;;;;;4933363;29;19982;-71
2023/01/17 16:07:19;;;;;;;;;;;4.20;99.90;;;;;;4933683;29;19927;-71
2023/01/17 16:09:46;;;;;;;;;;;3.90;99.90;;;;;;4931334;29;19959;-71
2023/01/17 16:12:13;;;;;;;;;;;3.70;99.90;;;;;;4926977;29;19927;-71
2023/01/17 16:14:41;;;;;;;;;;;3.60;99.90;;;;;;4925013;29;19927;-71
2023/01/17 16:17:15;;;;;;;;;;;3.40;99.90;;;;;;4926716;29;19932;-71
2023/01/17 16:19:45;;;;;;;;;;;3.30;99.90;;;;;;4925659;29;20466;-70
2023/01/17 16:22:12;;;;;;;;;;;3.20;99.90;;;;;;4923401;29;19931;-70
2023/01/17 16:24:39;;;;;;;;;;;3.10;99.90;;;;;;4918570;29;19927;-70
2023/01/17 16:27:06;;;;;;;;;;;3.00;99.90;;;;;;4916501;29;19931;-70
2023/01/17 16:29:33;;;;;;;;;;;2.90;99.90;;;;;;4924064;29;19927;-71
2023/01/17 16:32:07;;;;;;;;;;;2.90;99.90;;;;;;4920627;29;19932;-71
2023/01/17 16:34:34;;;;;;;;;;;2.70;99.90;;;;;;4926886;29;19926;-71
2023/01/17 16:37:02;;;;;;;;;;;2.60;99.90;;;;;;4927863;29;19927;-70
2023/01/17 16:39:29;;;;;;;;;;;2.50;99.90;;;;;;4929583;29;19997;-70
2023/01/17 16:41:59;;;;;;;;;;;2.50;99.90;;;;;;4926271;29;19927;-72
2023/01/17 16:44:25;;;;;;;;;;;2.40;99.90;;;;;;4926933;29;19927;-72
2023/01/17 16:46:52;;;;;;;;;;;2.30;99.90;;;;;;4923931;29;19975;-70
2023/01/17 16:49:20;;;;;;;;;;;2.20;99.90;;;;;;4924188;29;19974;-70
2023/01/17 16:51:47;;;;;;;;;;;2.10;99.90;;;;;;4922252;29;19941;-71
2023/01/17 16:54:14;;;;;;;;;;;2.10;99.90;;;;;;4925867;29;19994;-70
2023/01/17 16:56:41;;;;;;;;;;;2.10;99.90;;;;;;4927084;29;19930;-72
2023/01/17 16:59:07;;;;;;;;;;;2.10;99.90;;;;;;4926219;29;19935;-70
2023/01/17 17:01:34;;;;;;;;;;;1.90;99.90;;;;;;4923866;29;20279;-70
2023/01/17 17:04:01;;;;;;;;;;;1.80;99.90;;;;;;4930663;29;20357;-70
2023/01/17 17:06:29;;;;;;;;;;;1.70;99.90;;;;;;4918764;29;20378;-71
2023/01/17 17:08:58;;;;;;;;;;;1.70;99.90;;;;;;4922430;29;20354;-70
2023/01/17 17:11:25;;;;;;;;;;;1.60;99.90;;;;;;4918288;29;20295;-70
2023/01/17 17:13:52;;;;;;;;;;;1.70;99.90;;;;;;4923994;29;19931;-71
2023/01/17 17:16:19;;;;;;;;;;;1.60;99.90;;;;;;4922579;29;19927;-69
2023/01/17 17:18:47;;;;;;;;;;;1.60;99.90;;;;;;4928273;29;19933;-71
2023/01/17 17:21:14;;;;;;;;;;;1.60;99.90;;;;;;4919767;29;19978;-69
2023/01/17 17:23:42;;;;;;;;;;;1.60;99.90;;;;;;4924156;29;20310;-69
2023/01/17 17:26:09;;;;;;;;;;;1.60;99.90;;;;;;4926133;29;19937;-69
2023/01/17 17:28:36;;;;;;;;;;;1.60;99.90;;;;;;4924705;29;19982;-71
2023/01/17 17:31:07;;;;;;;;;;;1.50;99.90;;;;;;4926814;29;19938;-70
2023/01/17 17:33:33;;;;;;;;;;;1.50;99.90;;;;;;4922122;29;19927;-67
2023/01/17 17:36:04;;;;;;;;;;;1.50;99.90;;;;;;4928250;29;19930;-67
2023/01/17 17:38:33;;;;;;;;;;;1.40;99.90;;;;;;4925968;29;19927;-70
2023/01/17 17:41:05;;;;;;;;;;;1.40;99.90;;;;;;4922627;29;19927;-70
2023/01/17 17:43:32;;;;;;;;;;;;;;;;;;4923543;29;19927;-69
2023/01/17 17:45:59;;;;;;;;;;;1.30;99.90;;;;;;4923796;29;19955;-69
2023/01/17 17:48:26;;;;;;;;;;;1.30;99.90;;;;;;4923460;29;19942;-71
2023/01/17 17:50:55;;;;;;;;;;;1.30;99.90;;;;;;4919270;29;19930;-69
2023/01/17 17:53:22;;;;;;;;;;;1.20;99.90;;;;;;4921123;29;20386;-69
2023/01/17 17:55:50;;;;;;;;;;;1.10;99.90;;;;;;4922920;29;20466;-69
2023/01/17 17:58:18;;;;;;;;;;;1.10;99.90;;;;;;4928734;29;19962;-68
2023/01/17 18:00:45;;;;;;;;;;;1.00;99.90;;;;;;4926860;29;19959;-70
2023/01/17 18:03:12;;;;;;;;;;;1.00;99.90;;;;;;4928028;29;19970;-70
2023/01/17 18:05:40;;;;;;;;;;;0.90;99.90;;;;;;4925219;29;19959;-69
2023/01/17 18:08:07;;;;;;;;;;;0.90;99.90;;;;;;4918518;29;19965;-71
2023/01/17 18:10:34;;;;;;;;;;;0.90;99.90;;;;;;4920249;29;19927;-68
2023/01/17 18:13:00;;;;;;;;;;;0.80;99.90;;;;;;4922127;29;19927;-68
2023/01/17 18:15:29;;;;;;;;;;;0.70;99.90;;;;;;4925469;29;19927;-69
2023/01/17 18:17:56;;;;;;;;;;;0.70;99.90;;;;;;4926191;29;20390;-69
2023/01/17 18:20:22;;;;;;;;;;;0.70;99.90;;;;;;4918640;29;20383;-68
2023/01/17 18:22:49;;;;;;;;;;;0.60;99.90;;;;;;4936406;29;19961;-71
2023/01/17 18:25:16;;;;;;;;;;;0.70;99.90;;;;;;4920239;29;19999;-70
2023/01/17 18:27:43;;;;;;;;;;;0.80;99.90;;;;;;4919213;29;19927;-70
2023/01/17 18:30:11;;;;;;;;;;;0.80;99.90;;;;;;4917291;29;19927;-71
2023/01/17 18:32:40;;;;;;;;;;;0.70;99.90;;;;;;4922343;29;19927;-70
2023/01/17 18:35:07;;;;;;;;;;;0.60;99.90;;;;;;4921586;29;19927;-69
2023/01/17 18:37:34;;;;;;;;;;;0.60;99.90;;;;;;4920881;29;20310;-69
2023/01/17 18:40:01;;;;;;;;;;;0.50;99.90;;;;;;4918946;29;19927;-69
2023/01/17 18:42:28;;;;;;;;;;;0.50;99.90;;;;;;4921542;29;19927;-68